Time;durP1;ratioP1;P1;durP2;ratioP2;P2;SDS_P1;SDS_P2;PMS_P1;PMS_P2;Temp;Humidity;BMP_temperature;BMP_pressure;BME280_temperature;BME280_humidity;BME280_pressure;Samples;Min_cycle;Max_cycle;Signal;HPM_P1;HPM_P2
2022/01/20 00:00:03;;;;;;;1.43;1.43;;;4.70;99.90;;;;;;5051699;28;20229;-75
2022/01/20 00:02:31;;;;;;;2.93;2.10;;;4.70;99.90;;;;;;5033694;28;20211;-75
2022/01/20 00:08:08;;;;;;;3.37;3.10;;;4.60;99.90;;;;;;5051981;28;20185;-75
2022/01/20 00:26:30;;;;;;;3.20;1.27;;;4.30;99.90;;;;;;5051709;28;20177;-76
2022/01/20 00:28:59;;;;;;;1.40;0.97;;;4.30;99.90;;;;;;5033311;28;20212;-74
2022/01/20 00:31:42;;;;;;;1.17;1.13;;;4.20;99.90;;;;;;5051109;28;20170;-74
2022/01/20 00:34:20;;;;;;;0.60;0.50;;;4.20;99.90;;;;;;5051244;28;20188;-74
2022/01/20 00:39:30;;;;;;;0.67;0.67;;;4.20;99.90;;;;;;5051258;28;20561;-74
2022/01/20 00:41:56;;;;;;;1.37;1.07;;;4.20;99.90;;;;;;5032924;28;20191;-74
2022/01/20 00:44:24;;;;;;;2.10;1.93;;;4.20;99.90;;;;;;5051033;28;20189;-74
2022/01/20 00:46:49;;;;;;;1.03;1.03;;;4.10;99.90;;;;;;5051201;28;20204;-74
2022/01/20 00:49:15;;;;;;;5.67;2.40;;;4.10;99.90;;;;;;5051145;28;20293;-75
2022/01/20 00:51:42;;;;;;;1.23;1.23;;;4.10;99.90;;;;;;5050832;28;20208;-74
2022/01/20 00:54:07;;;;;;;1.33;1.23;;;4.00;99.90;;;;;;5051272;28;20230;-74
2022/01/20 00:56:33;;;;;;;0.80;0.80;;;4.00;99.90;;;;;;5055077;28;20256;-74
2022/01/20 00:58:58;;;;;;;0.20;0.20;;;4.00;99.90;;;;;;5054904;28;20570;-74
2022/01/20 01:01:25;;;;;;;2.70;2.50;;;4.00;99.90;;;;;;5036979;28;20192;-74
2022/01/20 01:03:51;;;;;;;0.67;0.67;;;3.90;99.90;;;;;;5037204;28;20680;-74
2022/01/20 01:08:54;;;;;;;3.10;1.47;;;3.90;99.90;;;;;;5055129;28;20675;-74
2022/01/20 01:11:22;;;;;;;0.40;0.40;;;3.90;99.90;;;;;;5054517;28;20183;-74
2022/01/20 01:13:47;;;;;;;2.53;1.90;;;3.90;99.90;;;;;;5055113;28;20266;-74
2022/01/20 01:16:14;;;;;;;0.17;0.17;;;3.80;99.90;;;;;;5054941;28;20259;-74
2022/01/20 01:21:30;;;;;;;4.93;1.50;;;3.70;99.90;;;;;;5054930;28;20229;-74
2022/01/20 01:23:55;;;;;;;0.13;0.13;;;3.70;99.90;;;;;;5054490;28;20204;-74
2022/01/20 01:26:24;;;;;;;0.10;0.10;;;3.60;99.90;;;;;;5054835;28;20184;-74
2022/01/20 01:28:50;;;;;;;2.83;1.23;;;3.50;99.90;;;;;;5102981;23;20671;-72
2022/01/20 01:34:06;;;;;;;0.17;0.17;;;3.50;99.90;;;;;;5055128;28;20256;-72
2022/01/20 01:36:46;;;;;;;3.43;1.73;;;3.50;99.90;;;;;;5056619;28;20187;-72
2022/01/20 01:39:12;;;;;;;0.57;0.57;;;3.40;99.90;;;;;;5037780;28;20204;-73
2022/01/20 01:41:38;;;;;;;15.53;4.17;;;3.40;99.90;;;;;;5054902;28;20608;-70
2022/01/20 01:44:07;;;;;;;2.27;1.80;;;3.30;99.90;;;;;;5054785;28;20209;-72
2022/01/20 01:46:34;;;;;;;6.60;2.87;;;3.30;99.90;;;;;;5054832;28;20176;-72
2022/01/20 01:49:00;;;;;;;0.43;0.43;;;3.30;99.90;;;;;;5055003;28;20641;-72
2022/01/20 01:51:26;;;;;;;0.93;0.93;;;3.30;99.90;;;;;;5058814;28;20207;-73
2022/01/20 01:53:52;;;;;;;6.90;3.70;;;3.30;99.90;;;;;;5061728;28;20267;-73
2022/01/20 01:56:18;;;;;;;4.37;1.13;;;3.40;99.90;;;;;;5043420;28;20187;-73
2022/01/20 01:58:44;;;;;;;1.10;0.77;;;3.40;99.90;;;;;;5060780;28;20238;-73
2022/01/20 02:01:10;;;;;;;1.80;1.00;;;3.40;99.90;;;;;;5058106;28;20617;-73
2022/01/20 02:03:44;;;;;;;1.30;1.30;;;3.50;99.90;;;;;;5056245;28;20212;-73
2022/01/20 02:09:19;;;;;;;0.20;0.20;;;3.60;99.90;;;;;;5057512;28;20231;-73
2022/01/20 02:19:56;;;;;;;0.10;0.10;;;3.80;99.90;;;;;;5056414;28;20242;-73
2022/01/20 02:22:22;;;;;;;8.60;0.70;;;3.90;99.90;;;;;;5037881;28;20590;-73
2022/01/20 02:24:48;;;;;;;0.10;0.10;;;3.90;99.90;;;;;;5056086;28;20173;-72
2022/01/20 02:27:13;;;;;;;0.83;0.83;;;3.90;99.90;;;;;;5056169;28;20606;-73
2022/01/20 02:29:39;;;;;;;0.10;0.10;;;4.00;99.90;;;;;;5055649;28;20212;-72
2022/01/20 02:32:05;;;;;;;0.40;0.40;;;4.00;99.90;;;;;;5055053;28;20176;-72
2022/01/20 02:34:31;;;;;;;0.50;0.50;;;4.00;99.90;;;;;;5037982;28;20177;-73
2022/01/20 02:37:01;;;;;;;0.73;0.73;;;4.00;99.90;;;;;;5038168;28;20199;-72
2022/01/20 02:39:46;;;;;;;8.80;2.00;;;4.00;99.90;;;;;;5037177;28;20211;-73
2022/01/20 02:45:03;;;;;;;0.03;0.03;;;3.90;99.90;;;;;;5055677;28;20721;-73
2022/01/20 02:47:31;;;;;;;2.33;2.23;;;3.90;99.90;;;;;;5055536;28;20185;-73
2022/01/20 02:49:57;;;;;;;0.00;0.00;;;3.90;99.90;;;;;;5055091;28;20288;-73
2022/01/20 02:52:24;;;;;;;1.13;1.07;;;3.90;99.90;;;;;;5054290;28;20277;-73
2022/01/20 02:54:54;;;;;;;1.70;1.60;;;3.90;99.90;;;;;;5054743;28;20590;-73
2022/01/20 02:57:20;;;;;;;0.20;0.20;;;3.90;99.90;;;;;;5054031;28;20207;-73
2022/01/20 02:59:46;;;;;;;3.67;3.20;;;3.90;99.90;;;;;;5053588;28;20209;-72
2022/01/20 03:02:12;;;;;;;0.20;0.20;;;3.90;99.90;;;;;;5052666;28;20603;-72
2022/01/20 03:04:38;;;;;;;0.83;0.67;;;3.90;99.90;;;;;;5053102;28;20564;-71
2022/01/20 03:07:05;;;;;;;0.70;0.70;;;4.00;99.90;;;;;;5053183;28;20180;-72
2022/01/20 03:09:31;;;;;;;0.10;0.10;;;4.00;99.90;;;;;;5053083;28;20200;-71
2022/01/20 03:11:56;;;;;;;8.93;2.47;;;3.90;99.90;;;;;;5052816;28;20242;-72
2022/01/20 03:14:22;;;;;;;8.23;2.83;;;3.80;99.90;;;;;;5053789;28;20647;-73
2022/01/20 03:16:49;;;;;;;0.00;0.00;;;3.80;99.90;;;;;;5052785;28;20183;-72
2022/01/20 03:19:15;;;;;;;2.03;1.03;;;3.80;99.90;;;;;;5034809;28;20687;-72
2022/01/20 03:21:41;;;;;;;0.67;0.60;;;3.70;99.90;;;;;;5052952;28;20190;-74
2022/01/20 03:24:08;;;;;;;0.50;0.50;;;3.70;99.90;;;;;;5035282;28;20266;-73
2022/01/20 03:26:34;;;;;;;4.03;1.90;;;3.70;99.90;;;;;;5053408;28;20208;-72
2022/01/20 03:28:59;;;;;;;3.13;0.80;;;3.60;99.90;;;;;;5052751;28;20216;-72
2022/01/20 03:31:26;;;;;;;1.53;0.50;;;3.60;99.90;;;;;;5034953;28;20181;-71
2022/01/20 03:33:52;;;;;;;0.33;0.33;;;3.60;99.90;;;;;;5053803;28;20180;-72
2022/01/20 03:36:18;;;;;;;0.10;0.10;;;3.60;99.90;;;;;;5053706;28;20191;-72
2022/01/20 03:38:44;;;;;;;0.37;0.37;;;3.60;99.90;;;;;;5052797;28;20211;-73
2022/01/20 03:41:10;;;;;;;0.03;0.03;;;3.70;99.90;;;;;;5051894;28;20233;-72
2022/01/20 03:43:36;;;;;;;0.00;0.00;;;3.70;99.90;;;;;;5051846;28;20204;-73
2022/01/20 03:46:05;;;;;;;1.90;1.80;;;3.70;99.90;;;;;;5052365;28;20223;-73
2022/01/20 03:48:37;;;;;;;0.20;0.20;;;3.70;99.90;;;;;;5051841;28;20169;-73
2022/01/20 03:51:03;;;;;;;11.13;1.00;;;3.70;99.90;;;;;;5052157;28;20658;-73
2022/01/20 03:53:32;;;;;;;0.73;0.73;;;3.70;99.90;;;;;;5051953;28;20267;-73
2022/01/20 03:55:58;;;;;;;0.07;0.07;;;3.70;99.90;;;;;;5052227;28;20198;-74
2022/01/20 03:58:24;;;;;;;4.37;1.70;;;3.70;99.90;;;;;;5051983;28;20195;-73
2022/01/20 04:00:50;;;;;;;0.30;0.30;;;3.80;99.90;;;;;;5052236;28;20578;-72
2022/01/20 04:03:17;;;;;;;1.47;1.40;;;3.70;99.90;;;;;;5051600;28;20216;-73
2022/01/20 04:05:58;;;;;;;0.30;0.30;;;3.70;99.90;;;;;;5052037;28;20598;-73
2022/01/20 04:08:32;;;;;;;0.20;0.20;;;3.70;99.90;;;;;;5052135;28;20177;-73
2022/01/20 04:11:04;;;;;;;0.23;0.23;;;3.60;99.90;;;;;;5052227;28;20238;-73
2022/01/20 04:13:31;;;;;;;0.13;0.13;;;3.60;99.90;;;;;;5051959;28;20222;-73
2022/01/20 04:16:00;;;;;;;0.20;0.20;;;3.60;99.90;;;;;;5034128;28;20188;-73
2022/01/20 04:18:28;;;;;;;0.00;0.00;;;3.50;99.90;;;;;;5034033;28;20188;-73
2022/01/20 04:20:55;;;;;;;0.17;0.17;;;3.50;99.90;;;;;;5051932;28;20191;-73
2022/01/20 04:23:21;;;;;;;0.20;0.20;;;3.50;99.90;;;;;;5033962;28;20212;-72
2022/01/20 04:25:47;;;;;;;6.90;1.10;;;3.50;99.90;;;;;;5052006;28;20181;-72
2022/01/20 04:28:13;;;;;;;0.20;0.20;;;3.50;99.90;;;;;;5051745;28;20550;-73
2022/01/20 04:30:38;;;;;;;0.77;0.77;;;3.60;99.90;;;;;;5050352;28;20216;-72
2022/01/20 04:33:04;;;;;;;0.93;0.93;;;3.60;99.90;;;;;;5033593;28;20647;-72
2022/01/20 04:35:30;;;;;;;0.50;0.50;;;3.60;99.90;;;;;;5052346;28;20289;-72
2022/01/20 04:37:57;;;;;;;1.40;0.43;;;3.60;99.90;;;;;;5052238;28;20223;-72
2022/01/20 04:40:23;;;;;;;3.43;3.20;;;3.60;99.90;;;;;;5051518;28;20200;-71
2022/01/20 04:42:50;;;;;;;2.73;1.40;;;3.70;99.90;;;;;;5051683;28;20207;-71
2022/01/20 04:45:23;;;;;;;0.17;0.17;;;3.80;99.90;;;;;;5051857;28;20176;-71
2022/01/20 04:48:12;;;;;;;0.00;0.00;;;3.80;99.90;;;;;;5052255;28;20577;-72
2022/01/20 04:58:50;;;;;;;7.47;1.67;;;3.80;99.90;;;;;;5052003;28;20294;-71
2022/01/20 05:01:16;;;;;;;0.87;0.87;;;3.80;99.90;;;;;;5051201;28;20706;-71
2022/01/20 05:03:43;;;;;;;6.90;2.23;;;3.70;99.90;;;;;;5050486;28;20289;-73
2022/01/20 05:06:09;;;;;;;0.10;0.10;;;3.80;99.90;;;;;;5051198;28;20196;-72
2022/01/20 05:08:35;;;;;;;0.93;0.93;;;3.80;99.90;;;;;;5033286;28;20667;-72
2022/01/20 05:11:02;;;;;;;6.33;1.33;;;3.90;99.90;;;;;;5050958;28;20207;-72
2022/01/20 05:13:33;;;;;;;0.30;0.30;;;3.90;99.90;;;;;;5050936;28;20181;-72
2022/01/20 05:16:00;;;;;;;3.30;0.60;;;3.90;99.90;;;;;;5051096;28;20183;-72
2022/01/20 05:18:25;;;;;;;0.77;0.77;;;3.90;99.90;;;;;;5051238;28;20185;-72
2022/01/20 05:20:51;;;;;;;1.40;1.07;;;3.90;99.90;;;;;;5051291;28;20234;-72
2022/01/20 05:23:17;;;;;;;1.13;0.47;;;4.00;99.90;;;;;;5032962;28;20204;-72
2022/01/20 05:25:43;;;;;;;0.17;0.10;;;4.00;99.90;;;;;;5051205;28;20252;-72
2022/01/20 05:28:08;;;;;;;0.23;0.23;;;4.00;99.90;;;;;;5051592;28;20276;-73
2022/01/20 05:30:34;;;;;;;1.53;0.83;;;4.00;99.90;;;;;;5033109;28;20277;-72
2022/01/20 05:33:01;;;;;;;0.73;0.73;;;4.00;99.90;;;;;;5051334;28;20177;-72
2022/01/20 05:35:28;;;;;;;1.17;0.97;;;4.00;99.90;;;;;;5051420;28;20187;-72
2022/01/20 05:37:54;;;;;;;1.60;1.50;;;3.90;99.90;;;;;;5049384;28;20188;-73
2022/01/20 05:40:20;;;;;;;0.67;0.67;;;3.90;99.90;;;;;;5051483;28;20212;-72
2022/01/20 05:42:45;;;;;;;0.20;0.20;;;3.90;99.90;;;;;;5036391;28;20239;-73
2022/01/20 05:45:12;;;;;;;3.90;2.20;;;3.90;99.90;;;;;;5054252;28;20880;-72
2022/01/20 05:47:45;;;;;;;0.27;0.27;;;3.90;99.90;;;;;;5036910;28;20195;-73
2022/01/20 05:50:17;;;;;;;0.10;0.10;;;3.90;99.90;;;;;;5054538;28;20573;-72
2022/01/20 05:52:43;;;;;;;4.80;2.67;;;3.90;99.90;;;;;;5036285;28;20190;-72
2022/01/20 05:55:16;;;;;;;0.43;0.43;;;3.90;99.90;;;;;;5036585;28;20603;-73
2022/01/20 05:57:42;;;;;;;2.13;1.50;;;4.00;99.90;;;;;;5054356;28;20214;-72
2022/01/20 06:00:12;;;;;;;0.60;0.20;;;4.00;99.90;;;;;;5054368;28;20660;-72
2022/01/20 06:03:36;;;;;;;0.10;0.10;;;4.00;99.90;;;;;;5054311;28;20200;-72
2022/01/20 06:05:24;;;;;;;0.03;0.03;;;3.90;99.90;;;;;;5050188;28;20228;-71
2022/01/20 06:07:50;;;;;;;2.27;2.07;;;3.90;99.90;;;;;;5047660;28;20269;-72
2022/01/20 06:10:15;;;;;;;1.20;1.20;;;3.90;99.90;;;;;;5051491;28;20220;-73
2022/01/20 06:12:41;;;;;;;0.10;0.10;;;3.90;99.90;;;;;;5034656;28;20266;-73
2022/01/20 06:15:07;;;;;;;1.27;0.53;;;3.90;99.90;;;;;;5054280;28;20648;-72
2022/01/20 06:17:36;;;;;;;0.60;0.60;;;3.90;99.90;;;;;;5054104;28;20234;-73
2022/01/20 06:20:01;;;;;;;0.83;0.67;;;3.80;99.90;;;;;;5054618;28;20215;-73
2022/01/20 06:22:27;;;;;;;0.10;0.10;;;3.80;99.90;;;;;;5053535;28;20665;-72
2022/01/20 06:24:52;;;;;;;1.53;1.47;;;3.70;99.90;;;;;;5053364;28;20253;-72
2022/01/20 06:27:18;;;;;;;0.83;0.83;;;3.70;99.90;;;;;;5054368;28;20613;-72
2022/01/20 06:29:43;;;;;;;0.97;0.97;;;3.70;99.90;;;;;;5053340;28;20227;-72
2022/01/20 06:32:09;;;;;;;0.93;0.93;;;3.70;99.90;;;;;;5035181;28;20537;-73
2022/01/20 06:34:35;;;;;;;1.43;0.83;;;3.70;99.90;;;;;;5053478;28;20703;-74
2022/01/20 06:37:01;;;;;;;0.10;0.10;;;3.70;99.90;;;;;;5053747;28;20272;-74
2022/01/20 06:39:26;;;;;;;3.40;1.60;;;3.70;99.90;;;;;;5053520;28;20490;-73
2022/01/20 06:41:52;;;;;;;0.13;0.10;;;3.70;99.90;;;;;;5053386;28;20180;-73
2022/01/20 06:44:18;;;;;;;1.13;0.90;;;3.70;99.90;;;;;;5052858;28;20211;-73
2022/01/20 06:46:45;;;;;;;1.00;1.00;;;3.60;99.90;;;;;;5053080;28;20260;-73
2022/01/20 06:49:10;;;;;;;0.60;0.60;;;3.60;99.90;;;;;;5052565;28;20211;-72
2022/01/20 06:51:37;;;;;;;1.30;1.20;;;3.60;99.90;;;;;;5052302;28;20183;-72
2022/01/20 06:54:03;;;;;;;0.00;0.00;;;3.60;99.90;;;;;;5052342;28;20628;-72
2022/01/20 06:56:29;;;;;;;4.97;0.97;;;3.60;99.90;;;;;;5035015;28;20282;-71
2022/01/20 06:58:54;;;;;;;0.87;0.73;;;3.60;99.90;;;;;;5052709;28;20653;-73
2022/01/20 07:01:20;;;;;;;0.23;0.17;;;3.50;99.90;;;;;;5046081;28;20189;-72
2022/01/20 07:03:46;;;;;;;7.23;1.13;;;3.50;99.90;;;;;;5044663;28;20229;-71
2022/01/20 07:06:11;;;;;;;0.30;0.30;;;3.50;99.90;;;;;;5052683;28;20253;-71
2022/01/20 07:08:37;;;;;;;0.10;0.10;;;3.50;99.90;;;;;;5052612;28;20263;-72
2022/01/20 07:11:03;;;;;;;0.10;0.10;;;3.50;99.90;;;;;;5052650;28;20190;-72
2022/01/20 07:13:28;;;;;;;1.07;1.07;;;3.50;99.90;;;;;;5034549;28;20567;-72
2022/01/20 07:15:54;;;;;;;0.30;0.30;;;3.50;99.90;;;;;;5052676;28;20184;-72
2022/01/20 07:18:20;;;;;;;0.00;0.00;;;3.50;99.90;;;;;;5052444;28;20190;-73
2022/01/20 07:20:45;;;;;;;0.00;0.00;;;3.50;99.90;;;;;;5034580;28;20185;-72
2022/01/20 07:23:11;;;;;;;0.10;0.10;;;3.60;99.90;;;;;;5034344;28;20226;-72
2022/01/20 07:25:37;;;;;;;0.17;0.17;;;3.60;99.90;;;;;;5052494;28;20185;-71
2022/01/20 07:28:03;;;;;;;0.10;0.10;;;3.60;99.90;;;;;;5052279;28;20556;-72
2022/01/20 07:30:29;;;;;;;1.00;1.00;;;3.70;99.90;;;;;;5087941;23;20226;-76
2022/01/20 07:32:54;;;;;;;0.53;0.53;;;3.60;99.90;;;;;;5069938;28;20188;-75
2022/01/20 07:35:20;;;;;;;1.07;0.97;;;3.70;99.90;;;;;;5071807;28;20225;-75
2022/01/20 07:37:46;;;;;;;0.27;0.27;;;3.70;99.90;;;;;;5071651;28;20185;-75
2022/01/20 07:40:12;;;;;;;1.10;0.47;;;3.70;99.90;;;;;;5071769;28;20294;-76
2022/01/20 07:42:38;;;;;;;0.00;0.00;;;3.70;99.90;;;;;;5071489;28;20348;-76
2022/01/20 07:45:04;;;;;;;0.00;0.00;;;3.60;99.90;;;;;;5071946;28;20208;-75
2022/01/20 07:47:30;;;;;;;0.00;0.00;;;3.40;99.90;;;;;;5071884;28;20175;-75
2022/01/20 07:49:55;;;;;;;1.10;0.60;;;3.20;99.90;;;;;;5071689;28;20687;-75
2022/01/20 07:52:21;;;;;;;0.00;0.00;;;3.10;99.90;;;;;;5070052;28;20750;-75
2022/01/20 07:54:46;;;;;;;0.40;0.40;;;3.20;99.90;;;;;;5070252;28;20193;-75
2022/01/20 07:57:12;;;;;;;0.00;0.00;;;3.20;99.90;;;;;;5071796;28;20186;-76
2022/01/20 07:59:37;;;;;;;0.00;0.00;;;3.10;99.90;;;;;;5070177;28;20206;-75
2022/01/20 08:02:03;;;;;;;0.47;0.47;;;3.20;99.90;;;;;;5071544;28;20182;-76
2022/01/20 08:04:28;;;;;;;1.30;1.30;;;3.20;99.90;;;;;;5070017;28;20752;-75
2022/01/20 08:06:54;;;;;;;0.00;0.00;;;3.20;99.90;;;;;;5071492;28;20233;-75
2022/01/20 08:09:20;;;;;;;0.00;0.00;;;3.20;99.90;;;;;;5069791;28;20202;-76
2022/01/20 08:11:45;;;;;;;0.43;0.43;;;3.20;99.90;;;;;;5069846;28;20177;-75
2022/01/20 08:14:11;;;;;;;0.20;0.20;;;3.20;99.90;;;;;;5071505;28;20180;-74
2022/01/20 08:16:36;;;;;;;25.27;1.17;;;3.20;99.90;;;;;;5070175;28;20189;-76
2022/01/20 08:19:02;;;;;;;0.00;0.00;;;3.20;99.90;;;;;;5071141;28;20213;-76
2022/01/20 08:21:27;;;;;;;0.40;0.30;;;3.20;99.90;;;;;;5070862;28;20235;-75
2022/01/20 08:23:53;;;;;;;2.90;1.00;;;3.30;99.90;;;;;;5069919;28;20217;-75
2022/01/20 08:26:18;;;;;;;0.17;0.17;;;3.20;99.90;;;;;;5071376;28;20210;-76
2022/01/20 08:28:44;;;;;;;0.50;0.50;;;3.20;99.90;;;;;;5071503;28;20179;-75
2022/01/20 08:31:10;;;;;;;12.27;2.57;;;3.20;99.90;;;;;;5070706;28;20194;-76
2022/01/20 08:33:35;;;;;;;0.00;0.00;;;3.30;99.90;;;;;;5069658;28;20257;-76
2022/01/20 08:36:01;;;;;;;1.33;1.23;;;3.30;99.90;;;;;;5071325;28;20686;-76
2022/01/20 08:38:26;;;;;;;0.00;0.00;;;3.30;99.90;;;;;;5070964;28;20198;-76
2022/01/20 08:40:53;;;;;;;2.23;1.80;;;3.40;99.90;;;;;;5071282;28;20288;-76
2022/01/20 08:43:18;;;;;;;1.20;1.20;;;3.40;99.90;;;;;;5070951;28;20209;-76
2022/01/20 08:45:44;;;;;;;0.20;0.20;;;3.50;99.90;;;;;;5069817;28;20182;-76
2022/01/20 08:48:13;;;;;;;3.93;1.47;;;3.50;99.90;;;;;;5069774;28;20180;-75
2022/01/20 08:50:40;;;;;;;0.23;0.23;;;3.50;99.90;;;;;;5070913;28;20187;-75
2022/01/20 08:53:05;;;;;;;0.10;0.10;;;3.50;99.90;;;;;;5069428;28;20190;-76
2022/01/20 08:55:31;;;;;;;0.20;0.20;;;3.50;99.90;;;;;;5070843;28;20183;-75
2022/01/20 08:57:59;;;;;;;0.07;0.07;;;3.50;99.90;;;;;;5069681;28;20180;-75
2022/01/20 09:00:30;;;;;;;0.10;0.10;;;3.50;99.90;;;;;;5069570;28;20231;-75
2022/01/20 09:02:57;;;;;;;0.00;0.00;;;3.50;99.90;;;;;;5070487;28;20206;-76
2022/01/20 09:05:23;;;;;;;0.00;0.00;;;3.60;99.90;;;;;;5069637;28;20187;-76
2022/01/20 09:07:48;;;;;;;0.60;0.50;;;3.60;99.90;;;;;;5069399;28;20185;-75
2022/01/20 09:10:21;;;;;;;1.13;0.30;;;3.80;99.90;;;;;;5070834;28;20238;-76
2022/01/20 09:15:31;;;;;;;12.43;0.70;;;3.90;99.90;;;;;;5069520;28;20180;-75
2022/01/20 09:18:07;;;;;;;0.00;0.00;;;3.70;99.90;;;;;;5074836;28;20188;-76
2022/01/20 09:20:34;;;;;;;0.50;0.33;;;3.60;99.90;;;;;;5074575;28;20206;-75
2022/01/20 09:23:00;;;;;;;0.10;0.10;;;3.40;99.90;;;;;;5074645;28;20204;-76
2022/01/20 09:25:26;;;;;;;0.97;0.53;;;3.20;99.90;;;;;;5074806;28;20179;-75
2022/01/20 09:27:55;;;;;;;2.13;2.03;;;3.10;99.90;;;;;;5074093;28;20406;-75
2022/01/20 09:30:22;;;;;;;0.00;0.00;;;3.10;99.90;;;;;;5074286;28;20755;-75
2022/01/20 09:32:58;;;;;;;0.00;0.00;;;3.30;99.90;;;;;;5074403;28;20218;-76
2022/01/20 09:35:31;;;;;;;0.00;0.00;;;3.20;99.90;;;;;;5074331;28;20210;-76
2022/01/20 09:37:58;;;;;;;0.10;0.10;;;3.20;99.90;;;;;;5074537;28;20186;-76
2022/01/20 09:40:24;;;;;;;0.00;0.00;;;3.20;99.90;;;;;;5074338;28;20290;-75
2022/01/20 09:42:50;;;;;;;0.00;0.00;;;3.30;99.90;;;;;;5073940;28;20207;-76
2022/01/20 09:45:16;;;;;;;0.13;0.13;;;3.30;99.90;;;;;;5072786;28;20171;-76
2022/01/20 09:47:43;;;;;;;0.97;0.20;;;3.40;99.90;;;;;;5074107;28;20175;-76
2022/01/20 09:50:11;;;;;;;0.00;0.00;;;3.30;99.90;;;;;;5073642;28;20277;-75
2022/01/20 09:52:36;;;;;;;0.83;0.83;;;3.40;99.90;;;;;;5072362;28;20189;-74
2022/01/20 09:55:02;;;;;;;0.23;0.17;;;3.40;99.90;;;;;;5073996;28;20266;-76
2022/01/20 09:57:28;;;;;;;0.63;0.63;;;3.40;99.90;;;;;;5072712;28;20182;-75
2022/01/20 09:59:53;;;;;;;0.40;0.40;;;3.50;99.90;;;;;;5072467;28;20234;-75
2022/01/20 10:02:19;;;;;;;0.00;0.00;;;3.80;99.90;;;;;;5073691;28;20210;-76
2022/01/20 10:04:45;;;;;;;0.20;0.20;;;3.90;99.90;;;;;;5073755;28;20615;-75
2022/01/20 10:07:13;;;;;;;0.00;0.00;;;3.90;99.90;;;;;;5073695;28;20519;-75
2022/01/20 10:09:45;;;;;;;0.57;0.50;;;4.00;99.90;;;;;;5073727;28;20192;-75
2022/01/20 10:12:14;;;;;;;1.27;1.27;;;4.10;99.90;;;;;;5072075;28;20172;-75
2022/01/20 10:14:50;;;;;;;0.10;0.10;;;4.20;99.90;;;;;;5059425;28;20181;-75
2022/01/20 10:17:21;;;;;;;0.10;0.10;;;4.30;99.90;;;;;;5073622;28;20179;-75
2022/01/20 10:19:52;;;;;;;0.00;0.00;;;4.20;99.90;;;;;;5073307;28;20192;-76
2022/01/20 10:22:23;;;;;;;0.10;0.10;;;4.10;99.90;;;;;;5073272;28;20808;-75
2022/01/20 10:25:08;;;;;;;0.10;0.10;;;4.10;99.90;;;;;;5073673;28;20171;-75
2022/01/20 10:27:48;;;;;;;0.00;0.00;;;3.70;99.90;;;;;;5071826;28;20201;-75
2022/01/20 10:30:14;;;;;;;0.10;0.10;;;3.50;99.90;;;;;;5067927;28;20216;-76
2022/01/20 10:32:52;;;;;;;22.27;2.20;;;3.50;99.90;;;;;;5073322;28;20175;-75
2022/01/20 10:35:23;;;;;;;0.50;0.33;;;3.40;99.90;;;;;;5072090;28;20182;-75
2022/01/20 10:38:14;;;;;;;2.23;0.43;;;3.40;99.90;;;;;;5073743;28;20177;-75
2022/01/20 10:40:47;;;;;;;4.90;1.80;;;3.40;99.90;;;;;;5059940;28;20219;-74
2022/01/20 10:43:28;;;;;;;18.47;1.30;;;3.40;99.90;;;;;;5073168;28;20211;-75
2022/01/20 10:46:08;;;;;;;8.50;1.90;;;3.40;99.90;;;;;;5073705;28;20267;-76
2022/01/20 10:48:34;;;;;;;0.37;0.37;;;3.50;99.90;;;;;;5072205;28;20183;-76
2022/01/20 10:51:00;;;;;;;0.20;0.20;;;3.40;99.90;;;;;;5073144;28;20214;-76
2022/01/20 10:53:26;;;;;;;0.53;0.53;;;3.40;99.90;;;;;;5071698;28;20644;-76
2022/01/20 10:56:04;;;;;;;1.50;1.40;;;3.40;99.90;;;;;;5073369;28;20183;-77
2022/01/20 10:58:31;;;;;;;5.90;0.97;;;3.40;99.90;;;;;;5058672;28;20264;-76
2022/01/20 11:00:57;;;;;;;18.87;1.63;;;3.30;99.90;;;;;;5072815;28;20206;-76
2022/01/20 11:03:27;;;;;;;1.10;0.40;;;3.30;99.90;;;;;;5059792;28;20202;-76
2022/01/20 11:05:54;;;;;;;2.23;1.50;;;3.40;99.90;;;;;;5072881;28;20171;-74
2022/01/20 11:08:21;;;;;;;0.33;0.33;;;3.50;99.90;;;;;;5072891;28;20186;-74
2022/01/20 11:10:46;;;;;;;0.33;0.33;;;3.40;99.90;;;;;;5072869;28;20192;-76
2022/01/20 11:13:15;;;;;;;0.00;0.00;;;3.40;99.90;;;;;;5072415;28;20741;-75
2022/01/20 11:15:41;;;;;;;0.10;0.10;;;3.50;99.90;;;;;;5072376;28;20180;-76
2022/01/20 11:18:10;;;;;;;0.10;0.10;;;3.50;99.90;;;;;;5072933;28;20592;-76
2022/01/20 11:20:44;;;;;;;0.43;0.40;;;3.40;99.90;;;;;;5072093;28;20207;-75
2022/01/20 11:23:10;;;;;;;0.87;0.77;;;3.40;99.90;;;;;;5070608;28;20215;-76
2022/01/20 11:25:39;;;;;;;0.10;0.10;;;3.40;99.90;;;;;;5072162;28;20200;-76
2022/01/20 11:28:31;;;;;;;0.33;0.33;;;3.40;99.90;;;;;;5071200;28;20183;-75
2022/01/20 11:31:06;;;;;;;5.30;0.40;;;3.40;99.90;;;;;;5057207;28;20593;-76
2022/01/20 11:33:41;;;;;;;5.33;0.43;;;3.30;99.90;;;;;;5071810;28;20193;-76
2022/01/20 11:36:20;;;;;;;1.03;0.83;;;3.20;99.90;;;;;;5072223;28;20191;-76
2022/01/20 11:38:50;;;;;;;0.20;0.20;;;3.00;99.90;;;;;;5070225;28;20187;-76
2022/01/20 11:41:17;;;;;;;0.57;0.57;;;2.80;99.90;;;;;;5073510;28;20187;-74
2022/01/20 11:43:49;;;;;;;0.20;0.20;;;2.70;99.90;;;;;;5059300;28;20218;-76
2022/01/20 11:46:23;;;;;;;0.73;0.73;;;2.60;99.90;;;;;;5072436;28;20202;-76
2022/01/20 11:48:58;;;;;;;0.00;0.00;;;2.60;99.90;;;;;;5072564;28;20175;-76
2022/01/20 11:51:27;;;;;;;11.87;0.77;;;2.60;99.90;;;;;;5071985;28;20182;-76
2022/01/20 11:54:04;;;;;;;0.50;0.50;;;2.70;99.90;;;;;;5063639;28;20542;-76
2022/01/20 11:56:41;;;;;;;0.00;0.00;;;2.70;99.90;;;;;;5069504;28;20181;-76
2022/01/20 11:59:09;;;;;;;1.17;1.17;;;2.80;99.90;;;;;;5071188;28;20231;-76
2022/01/20 12:01:49;;;;;;;0.33;0.33;;;2.70;99.90;;;;;;5072764;28;20183;-77
2022/01/20 12:04:16;;;;;;;5.73;1.80;;;2.70;99.90;;;;;;5073010;28;20209;-76
2022/01/20 12:06:45;;;;;;;0.30;0.30;;;2.90;99.90;;;;;;5072265;28;20265;-76
2022/01/20 12:09:13;;;;;;;0.20;0.20;;;3.30;99.90;;;;;;5072103;28;20203;-76
2022/01/20 12:11:48;;;;;;;1.47;0.83;;;3.60;99.90;;;;;;5071529;28;20209;-76
2022/01/20 12:14:24;;;;;;;0.30;0.30;;;4.10;99.90;;;;;;5068065;28;20236;-76
2022/01/20 12:16:50;;;;;;;12.53;3.10;;;4.50;99.90;;;;;;5064021;28;20240;-76
2022/01/20 12:19:16;;;;;;;0.90;0.63;;;4.80;99.90;;;;;;5071524;28;20196;-77
2022/01/20 12:21:48;;;;;;;0.10;0.10;;;5.10;99.90;;;;;;5070301;28;20183;-76
2022/01/20 12:24:14;;;;;;;0.10;0.10;;;6.20;99.90;;;;;;5071724;28;20196;-76
2022/01/20 12:26:40;;;;;;;0.40;0.40;;;6.40;99.90;;;;;;5071271;28;20176;-75
2022/01/20 12:29:08;;;;;;;1.33;1.33;;;6.90;99.90;;;;;;5069586;28;20218;-76
2022/01/20 12:31:46;;;;;;;0.53;0.50;;;7.20;99.90;;;;;;5071280;28;20678;-76
2022/01/20 12:34:12;;;;;;;1.07;1.07;;;6.40;99.90;;;;;;5071085;28;20551;-75
2022/01/20 12:36:39;;;;;;;0.90;0.87;;;6.60;99.90;;;;;;5070888;28;20184;-75
2022/01/20 12:39:05;;;;;;;0.23;0.23;;;7.30;99.90;;;;;;5070974;28;20277;-75
2022/01/20 12:41:31;;;;;;;0.17;0.17;;;6.50;99.90;;;;;;5070761;28;20184;-75
2022/01/20 12:44:06;;;;;;;0.27;0.27;;;6.10;99.90;;;;;;5071184;28;20206;-76
2022/01/20 12:46:37;;;;;;;4.33;0.93;;;5.70;99.90;;;;;;5071358;28;20205;-76
2022/01/20 12:49:08;;;;;;;0.20;0.20;;;5.50;99.90;;;;;;5069773;28;20295;-75
2022/01/20 12:51:34;;;;;;;0.20;0.20;;;5.30;99.90;;;;;;5069903;28;20176;-76
2022/01/20 12:54:16;;;;;;;0.50;0.50;;;5.30;99.90;;;;;;5071226;28;20238;-76
2022/01/20 12:56:45;;;;;;;0.30;0.30;;;5.10;99.90;;;;;;5071222;28;20169;-76
2022/01/20 12:59:11;;;;;;;1.53;1.03;;;5.00;99.90;;;;;;5069929;28;20196;-75
2022/01/20 13:01:48;;;;;;;0.40;0.40;;;4.90;99.90;;;;;;5069700;28;20176;-75
2022/01/20 13:04:16;;;;;;;0.20;0.20;;;5.00;99.90;;;;;;5070693;28;20202;-75
2022/01/20 13:06:46;;;;;;;0.30;0.30;;;5.30;99.90;;;;;;5071037;28;20204;-76
2022/01/20 13:09:13;;;;;;;0.10;0.10;;;5.80;99.90;;;;;;5069958;28;20226;-76
2022/01/20 13:11:43;;;;;;;0.37;0.37;;;5.50;99.90;;;;;;5069374;28;20249;-76
2022/01/20 13:14:11;;;;;;;3.27;1.83;;;6.00;99.90;;;;;;5070954;28;20183;-76
2022/01/20 13:16:37;;;;;;;0.33;0.33;;;6.50;99.90;;;;;;5070908;28;20263;-75
2022/01/20 13:19:04;;;;;;;2.50;0.57;;;7.60;99.90;;;;;;5070526;28;20219;-76
2022/01/20 13:21:36;;;;;;;0.30;0.30;;;8.60;99.90;;;;;;5070739;28;20176;-77
2022/01/20 13:24:03;;;;;;;0.10;0.10;;;8.00;99.90;;;;;;5070564;28;20269;-75
2022/01/20 13:26:29;;;;;;;1.53;1.43;;;6.40;99.90;;;;;;5069322;28;20655;-75
2022/01/20 13:29:05;;;;;;;14.30;1.93;;;5.70;99.90;;;;;;5069323;28;20183;-76
2022/01/20 13:31:31;;;;;;;0.77;0.77;;;5.40;99.90;;;;;;5103583;22;20255;-73
2022/01/20 13:34:07;;;;;;;0.13;0.13;;;5.20;99.90;;;;;;5051437;28;20663;-74
2022/01/20 13:36:37;;;;;;;1.90;0.53;;;5.20;99.90;;;;;;5050403;28;20173;-73
2022/01/20 13:39:03;;;;;;;0.40;0.40;;;5.10;99.90;;;;;;5051953;28;20177;-73
2022/01/20 13:41:29;;;;;;;0.97;0.97;;;5.10;99.90;;;;;;5032387;28;20711;-74
2022/01/20 13:46:44;;;;;;;0.27;0.27;;;4.90;99.90;;;;;;5050838;28;20192;-73
2022/01/20 13:49:13;;;;;;;1.50;0.33;;;4.90;99.90;;;;;;5051192;28;20180;-74
2022/01/20 13:51:39;;;;;;;0.30;0.30;;;4.80;99.90;;;;;;5050529;28;20205;-72
2022/01/20 13:54:05;;;;;;;1.23;0.40;;;4.70;99.90;;;;;;5032935;28;20568;-74
2022/01/20 13:56:31;;;;;;;0.20;0.20;;;4.60;99.90;;;;;;5050839;28;20185;-73
2022/01/20 13:59:08;;;;;;;0.40;0.40;;;4.50;99.90;;;;;;5050893;28;20551;-73